DAL768 KLAX-KBNA
Flight info
| Callsign | DAL768 |
|---|---|
| Flight time | N/A |
| Altitude | 39000 |
| Route | DOTSS2 CLEEE PKE HIDAT KA27O KA33W KK36A TUL KM36I LOPPY CHSNE3 |
| Aircraft | B762/H-SDFGIRWY/S |
Departure
| Time | 2026-04-23 20:05 |
|---|---|
| Airport | Los Angeles International Airport (KLAX) |
Arrival
| Time | N/A |
|---|---|
| Airport | Nashville International Airport (KBNA) |
| Time | Latitude | Longitude | Altitude | Speed | Heading |
|---|---|---|---|---|---|
| 2026-04-23 19:40 | 33.94633 | -118.40839 | 127 ft | 0 kts | 96° |
| 2026-04-23 19:53 | 33.94634 | -118.40849 | 127 ft | 0 kts | 95° |
| 2026-04-23 19:53 | 33.94634 | -118.40865 | 127 ft | 2 kts | 74° |
| 2026-04-23 19:53 | 33.94628 | -118.40881 | 127 ft | 2 kts | 50° |
| 2026-04-23 19:54 | 33.94617 | -118.40893 | 127 ft | 2 kts | 27° |
| 2026-04-23 19:54 | 33.94602 | -118.40899 | 127 ft | 2 kts | 3° |
| 2026-04-23 19:54 | 33.94595 | -118.40898 | 127 ft | 1 kts | 352° |
| 2026-04-23 19:54 | 33.94592 | -118.40898 | 127 ft | 0 kts | 352° |
| 2026-04-23 19:57 | 33.94593 | -118.40898 | 127 ft | 0 kts | 352° |
| 2026-04-23 19:57 | 33.94606 | -118.40900 | 127 ft | 2 kts | 352° |
| 2026-04-23 19:57 | 33.94630 | -118.40904 | 127 ft | 4 kts | 352° |
| 2026-04-23 19:57 | 33.94648 | -118.40907 | 127 ft | 0 kts | 352° |
| 2026-04-23 19:58 | 33.94652 | -118.40908 | 127 ft | 1 kts | 352° |
| 2026-04-23 19:58 | 33.94672 | -118.40911 | 127 ft | 3 kts | 352° |
| 2026-04-23 19:58 | 33.94700 | -118.40915 | 127 ft | 3 kts | 0° |
| 2026-04-23 19:58 | 33.94727 | -118.40909 | 127 ft | 5 kts | 15° |
| 2026-04-23 19:59 | 33.94769 | -118.40895 | 127 ft | 7 kts | 15° |
| 2026-04-23 19:59 | 33.94812 | -118.40877 | 127 ft | 5 kts | 34° |
| 2026-04-23 19:59 | 33.94835 | -118.40842 | 127 ft | 5 kts | 67° |
| 2026-04-23 19:59 | 33.94846 | -118.40789 | 127 ft | 7 kts | 80° |
| 2026-04-23 20:00 | 33.94854 | -118.40715 | 127 ft | 9 kts | 83° |
| 2026-04-23 20:00 | 33.94862 | -118.40623 | 126 ft | 12 kts | 84° |
| 2026-04-23 20:00 | 33.94873 | -118.40512 | 126 ft | 14 kts | 84° |
| 2026-04-23 20:00 | 33.94888 | -118.40385 | 125 ft | 16 kts | 82° |
| 2026-04-23 20:01 | 33.94903 | -118.40237 | 123 ft | 18 kts | 84° |
| 2026-04-23 20:01 | 33.94918 | -118.40080 | 122 ft | 17 kts | 83° |
| 2026-04-23 20:01 | 33.94931 | -118.39972 | 121 ft | 10 kts | 71° |
| 2026-04-23 20:01 | 33.94945 | -118.39944 | 121 ft | 0 kts | 52° |
| 2026-04-23 20:02 | 33.94950 | -118.39937 | 121 ft | 2 kts | 46° |
| 2026-04-23 20:02 | 33.94973 | -118.39922 | 121 ft | 4 kts | 16° |
| 2026-04-23 20:03 | 33.95011 | -118.39921 | 121 ft | 5 kts | 343° |
| 2026-04-23 20:03 | 33.95037 | -118.39952 | 121 ft | 4 kts | 286° |
| 2026-04-23 20:03 | 33.95038 | -118.39995 | 121 ft | 6 kts | 264° |
| 2026-04-23 20:03 | 33.95027 | -118.40085 | 122 ft | 16 kts | 262° |
| 2026-04-23 20:04 | 33.94999 | -118.40357 | 124 ft | 55 kts | 263° |
| 2026-04-23 20:04 | 33.94933 | -118.41007 | 127 ft | 100 kts | 262° |
| 2026-04-23 20:04 | 33.94832 | -118.41999 | 124 ft | 137 kts | 262° |
| 2026-04-23 20:04 | 33.94706 | -118.43265 | 144 ft | 165 kts | 265° |
| 2026-04-23 20:05 | 33.94634 | -118.44675 | 269 ft | 178 kts | 262° |
| 2026-04-23 20:05 | 33.94495 | -118.46164 | 928 ft | 176 kts | 264° |
| 2026-04-23 20:05 | 33.94402 | -118.47605 | 1250 ft | 173 kts | 267° |
| 2026-04-23 20:05 | 33.94333 | -118.49117 | 1377 ft | 189 kts | 267° |
| 2026-04-23 20:06 | 33.94261 | -118.50754 | 1594 ft | 205 kts | 266° |
| 2026-04-23 20:06 | 33.94116 | -118.52515 | 1864 ft | 218 kts | 265° |
| 2026-04-23 20:06 | 33.93961 | -118.54386 | 2119 ft | 232 kts | 265° |
| 2026-04-23 20:06 | 33.93801 | -118.56374 | 2434 ft | 244 kts | 266° |
| 2026-04-23 20:07 | 33.93637 | -118.58426 | 2916 ft | 249 kts | 266° |
| 2026-04-23 20:07 | 33.93441 | -118.60566 | 2984 ft | 272 kts | 259° |
| 2026-04-23 20:07 | 33.92629 | -118.62716 | 3011 ft | 298 kts | 232° |
| 2026-04-23 20:07 | 33.90973 | -118.64195 | 3865 ft | 295 kts | 202° |
| 2026-04-23 20:08 | 33.89022 | -118.64582 | 4861 ft | 285 kts | 175° |
| 2026-04-23 20:08 | 33.87091 | -118.64236 | 5724 ft | 280 kts | 172° |
| 2026-04-23 20:08 | 33.85149 | -118.63946 | 6340 ft | 285 kts | 169° |
| 2026-04-23 20:08 | 33.83330 | -118.63076 | 6996 ft | 287 kts | 147° |
| 2026-04-23 20:09 | 33.81667 | -118.61737 | 7639 ft | 291 kts | 147° |
| 2026-04-23 20:09 | 33.79966 | -118.60381 | 8298 ft | 295 kts | 147° |
| 2026-04-23 20:09 | 33.78245 | -118.58995 | 8961 ft | 299 kts | 147° |
| 2026-04-23 20:09 | 33.76524 | -118.57604 | 9621 ft | 303 kts | 148° |
| 2026-04-23 20:10 | 33.74756 | -118.56173 | 10260 ft | 309 kts | 148° |
| 2026-04-23 20:10 | 33.72944 | -118.54706 | 10590 ft | 326 kts | 148° |
| 2026-04-23 20:10 | 33.71034 | -118.53054 | 10912 ft | 345 kts | 140° |
| 2026-04-23 20:10 | 33.69445 | -118.50789 | 11212 ft | 366 kts | 122° |
| 2026-04-23 20:11 | 33.68423 | -118.47984 | 11817 ft | 375 kts | 109° |
| 2026-04-23 20:11 | 33.67591 | -118.45001 | 12458 ft | 382 kts | 110° |
| 2026-04-23 20:11 | 33.66698 | -118.41944 | 13083 ft | 390 kts | 110° |
| 2026-04-23 20:11 | 33.65796 | -118.38873 | 13777 ft | 395 kts | 110° |
| 2026-04-23 20:12 | 33.64908 | -118.35774 | 14464 ft | 400 kts | 107° |
| 2026-04-23 20:12 | 33.64476 | -118.32472 | 15079 ft | 405 kts | 91° |
| 2026-04-23 20:12 | 33.64487 | -118.29057 | 15793 ft | 409 kts | 90° |
| 2026-04-23 20:12 | 33.64473 | -118.25657 | 16397 ft | 415 kts | 89° |
| 2026-04-23 20:13 | 33.64473 | -118.22204 | 17110 ft | 418 kts | 90° |
| 2026-04-23 20:13 | 33.64471 | -118.18708 | 17674 ft | 425 kts | 90° |
| 2026-04-23 20:13 | 33.64469 | -118.15155 | 18412 ft | 427 kts | 90° |
| 2026-04-23 20:13 | 33.64467 | -118.11578 | 19030 ft | 433 kts | 90° |
| 2026-04-23 20:14 | 33.64465 | -118.07958 | 19760 ft | 435 kts | 90° |
| 2026-04-23 20:14 | 33.64461 | -118.04353 | 20378 ft | 440 kts | 90° |
| 2026-04-23 20:14 | 33.64456 | -118.00678 | 21034 ft | 443 kts | 90° |
| 2026-04-23 20:14 | 33.64452 | -117.96976 | 21644 ft | 448 kts | 90° |
| 2026-04-23 20:15 | 33.64444 | -117.93231 | 22340 ft | 450 kts | 89° |
| 2026-04-23 20:15 | 33.64436 | -117.89478 | 22834 ft | 456 kts | 89° |
| 2026-04-23 20:15 | 33.64427 | -117.85679 | 23495 ft | 458 kts | 90° |
| 2026-04-23 20:15 | 33.64432 | -117.81815 | 24007 ft | 463 kts | 88° |
| 2026-04-23 20:16 | 33.64771 | -117.77986 | 24493 ft | 468 kts | 78° |
| 2026-04-23 20:16 | 33.65484 | -117.74180 | 25048 ft | 470 kts | 76° |
| 2026-04-23 20:16 | 33.66209 | -117.70316 | 25557 ft | 474 kts | 76° |
| 2026-04-23 20:16 | 33.66944 | -117.66470 | 26016 ft | 479 kts | 76° |
| 2026-04-23 20:17 | 33.67695 | -117.62545 | 26490 ft | 484 kts | 76° |
| 2026-04-23 20:17 | 33.68447 | -117.58611 | 26951 ft | 488 kts | 76° |
| 2026-04-23 20:17 | 33.69211 | -117.54620 | 27425 ft | 492 kts | 76° |
| 2026-04-23 20:17 | 33.69977 | -117.50609 | 27874 ft | 496 kts | 76° |
| 2026-04-23 20:18 | 33.70747 | -117.46567 | 28310 ft | 500 kts | 76° |
| 2026-04-23 20:18 | 33.71513 | -117.42542 | 28763 ft | 503 kts | 76° |
| 2026-04-23 20:18 | 33.72293 | -117.38438 | 29200 ft | 506 kts | 76° |
| 2026-04-23 20:18 | 33.73082 | -117.34283 | 29526 ft | 512 kts | 77° |
| 2026-04-23 20:19 | 33.73872 | -117.30104 | 29986 ft | 514 kts | 77° |
| 2026-04-23 20:19 | 33.74634 | -117.25904 | 30448 ft | 515 kts | 79° |
| 2026-04-23 20:19 | 33.74991 | -117.21590 | 30806 ft | 518 kts | 90° |
| 2026-04-23 20:19 | 33.74956 | -117.17283 | 31168 ft | 521 kts | 92° |
| 2026-04-23 20:20 | 33.74897 | -117.12942 | 31574 ft | 523 kts | 92° |
| 2026-04-23 20:20 | 33.74821 | -117.08561 | 31931 ft | 526 kts | 92° |
| 2026-04-23 20:20 | 33.74737 | -117.04182 | 32342 ft | 527 kts | 92° |
| 2026-04-23 20:20 | 33.74650 | -116.99809 | 32926 ft | 525 kts | 92° |
| 2026-04-23 20:21 | 33.74559 | -116.95441 | 33359 ft | 525 kts | 92° |
| 2026-04-23 20:21 | 33.74466 | -116.91087 | 33860 ft | 524 kts | 92° |
| 2026-04-23 20:21 | 33.74370 | -116.86739 | 34429 ft | 521 kts | 92° |
| 2026-04-23 20:21 | 33.74273 | -116.82416 | 34822 ft | 522 kts | 92° |
| 2026-04-23 20:22 | 33.74173 | -116.78066 | 35192 ft | 523 kts | 92° |
| 2026-04-23 20:22 | 33.74072 | -116.73722 | 35757 ft | 520 kts | 93° |
| 2026-04-23 20:22 | 33.73969 | -116.69347 | 36073 ft | 521 kts | 92° |
| 2026-04-23 20:22 | 33.73866 | -116.65045 | 36473 ft | 521 kts | 92° |
| 2026-04-23 20:23 | 33.73761 | -116.60725 | 36862 ft | 521 kts | 93° |
| 2026-04-23 20:23 | 33.73653 | -116.56364 | 37212 ft | 521 kts | 92° |
| 2026-04-23 20:23 | 33.73544 | -116.52007 | 37448 ft | 523 kts | 92° |
| 2026-04-23 20:23 | 33.73433 | -116.47653 | 37767 ft | 523 kts | 93° |
| 2026-04-23 20:24 | 33.73324 | -116.43345 | 38062 ft | 523 kts | 93° |
| 2026-04-23 20:24 | 33.73208 | -116.38953 | 38310 ft | 524 kts | 92° |
| 2026-04-23 20:24 | 33.73093 | -116.34631 | 38621 ft | 523 kts | 93° |
| 2026-04-23 20:24 | 33.72975 | -116.30212 | 38819 ft | 524 kts | 93° |
| 2026-04-23 20:25 | 33.72859 | -116.25900 | 39008 ft | 518 kts | 93° |
| 2026-04-23 20:25 | 33.72622 | -116.17323 | 38998 ft | 513 kts | 94° |
| 2026-04-23 20:26 | 33.72628 | -116.08781 | 39024 ft | 515 kts | 83° |
| 2026-04-23 20:26 | 33.74326 | -116.00468 | 39044 ft | 515 kts | 71° |
| 2026-04-23 20:27 | 33.76550 | -115.92303 | 39051 ft | 516 kts | 71° |
| 2026-04-23 20:27 | 33.78814 | -115.84083 | 39044 ft | 519 kts | 71° |
| 2026-04-23 20:28 | 33.81083 | -115.75851 | 39066 ft | 520 kts | 71° |
| 2026-04-23 20:28 | 33.83356 | -115.67596 | 39046 ft | 521 kts | 70° |
| 2026-04-23 20:29 | 33.85616 | -115.59368 | 39019 ft | 522 kts | 71° |
| 2026-04-23 20:29 | 33.87894 | -115.51043 | 39012 ft | 523 kts | 70° |
| 2026-04-23 20:30 | 33.90152 | -115.42773 | 38999 ft | 523 kts | 71° |
| 2026-04-23 20:30 | 33.93550 | -115.30283 | 38964 ft | 523 kts | 71° |
| 2026-04-23 20:31 | 33.95797 | -115.21993 | 38958 ft | 522 kts | 71° |
| 2026-04-23 20:31 | 33.98040 | -115.13683 | 38961 ft | 523 kts | 71° |
| 2026-04-23 20:32 | 34.00279 | -115.05376 | 38953 ft | 523 kts | 71° |
| 2026-04-23 20:32 | 34.02507 | -114.97076 | 38949 ft | 522 kts | 71° |
| 2026-04-23 20:33 | 34.04725 | -114.88787 | 38949 ft | 524 kts | 71° |
| 2026-04-23 20:33 | 34.06960 | -114.80421 | 38948 ft | 524 kts | 71° |
| 2026-04-23 20:34 | 34.09169 | -114.72114 | 38961 ft | 523 kts | 71° |
| 2026-04-23 20:34 | 34.11470 | -114.63735 | 38958 ft | 525 kts | 70° |
| 2026-04-23 20:35 | 34.13833 | -114.55393 | 38949 ft | 525 kts | 70° |
| 2026-04-23 20:35 | 34.16182 | -114.47063 | 38944 ft | 526 kts | 70° |
| 2026-04-23 20:36 | 34.18520 | -114.38750 | 38955 ft | 526 kts | 70° |
| 2026-04-23 20:36 | 34.20884 | -114.30318 | 38934 ft | 526 kts | 71° |
| 2026-04-23 20:37 | 34.23206 | -114.22005 | 38923 ft | 526 kts | 70° |
| 2026-04-23 20:37 | 34.25544 | -114.13614 | 38924 ft | 527 kts | 70° |
| 2026-04-23 20:38 | 34.27870 | -114.05244 | 38921 ft | 528 kts | 70° |
| 2026-04-23 20:38 | 34.30197 | -113.96845 | 38932 ft | 529 kts | 70° |
| 2026-04-23 20:39 | 34.32522 | -113.88429 | 38945 ft | 529 kts | 70° |
| 2026-04-23 20:39 | 34.34842 | -113.80003 | 38958 ft | 530 kts | 70° |
| 2026-04-23 20:40 | 34.37170 | -113.71519 | 38969 ft | 531 kts | 70° |
| 2026-04-23 20:40 | 34.39479 | -113.63088 | 38996 ft | 532 kts | 70° |
| 2026-04-23 20:41 | 34.41794 | -113.54603 | 39011 ft | 532 kts | 70° |
| 2026-04-23 20:41 | 34.44108 | -113.46096 | 39025 ft | 534 kts | 70° |
| 2026-04-23 20:42 | 34.46414 | -113.37589 | 39027 ft | 533 kts | 70° |
| 2026-04-23 20:42 | 34.48691 | -113.29165 | 39017 ft | 534 kts | 70° |
| 2026-04-23 20:43 | 34.50990 | -113.20636 | 39019 ft | 532 kts | 71° |
| 2026-04-23 20:43 | 34.53272 | -113.12145 | 39026 ft | 533 kts | 71° |
| 2026-04-23 20:44 | 34.55563 | -113.03590 | 39051 ft | 534 kts | 71° |
| 2026-04-23 20:44 | 34.57844 | -112.95043 | 39066 ft | 535 kts | 71° |
| 2026-04-23 20:45 | 34.60127 | -112.86468 | 39080 ft | 536 kts | 71° |
| 2026-04-23 20:45 | 34.62399 | -112.77902 | 39077 ft | 535 kts | 71° |
| 2026-04-23 20:46 | 34.64661 | -112.69340 | 39089 ft | 537 kts | 71° |
| 2026-04-23 20:46 | 34.66941 | -112.60694 | 39093 ft | 536 kts | 70° |
| 2026-04-23 20:47 | 34.69201 | -112.52088 | 39088 ft | 535 kts | 71° |
| 2026-04-23 20:47 | 34.70621 | -112.43218 | 39111 ft | 537 kts | 83° |
| 2026-04-23 20:48 | 34.71505 | -112.34270 | 39099 ft | 537 kts | 84° |
| 2026-04-23 20:48 | 34.72350 | -112.25238 | 39089 ft | 537 kts | 85° |
| 2026-04-23 20:49 | 34.73175 | -112.16196 | 39085 ft | 538 kts | 84° |
| 2026-04-23 20:49 | 34.73992 | -112.07154 | 39079 ft | 539 kts | 85° |
| 2026-04-23 20:50 | 34.74797 | -111.98130 | 39052 ft | 540 kts | 84° |
| 2026-04-23 20:50 | 34.75601 | -111.89051 | 39072 ft | 540 kts | 84° |
| 2026-04-23 20:51 | 34.76395 | -111.80001 | 39078 ft | 541 kts | 85° |
| 2026-04-23 20:51 | 34.77182 | -111.70937 | 39080 ft | 542 kts | 85° |
| 2026-04-23 20:52 | 34.77965 | -111.61855 | 39110 ft | 543 kts | 85° |
| 2026-04-23 20:52 | 34.78743 | -111.52767 | 39112 ft | 542 kts | 85° |
| 2026-04-23 20:53 | 34.79496 | -111.43866 | 39115 ft | 544 kts | 85° |
| 2026-04-23 20:53 | 34.80263 | -111.34743 | 39118 ft | 545 kts | 85° |
| 2026-04-23 20:54 | 34.81028 | -111.25566 | 39103 ft | 544 kts | 85° |
| 2026-04-23 20:54 | 34.81780 | -111.16431 | 39095 ft | 544 kts | 85° |
| 2026-04-23 20:55 | 34.82526 | -111.07288 | 39090 ft | 545 kts | 86° |
| 2026-04-23 20:55 | 34.83270 | -110.98103 | 39100 ft | 547 kts | 86° |
| 2026-04-23 20:56 | 34.84005 | -110.88922 | 39092 ft | 548 kts | 85° |
| 2026-04-23 20:56 | 34.84732 | -110.79778 | 39094 ft | 548 kts | 86° |
| 2026-04-23 20:57 | 34.85459 | -110.70512 | 39094 ft | 549 kts | 85° |
| 2026-04-23 20:57 | 34.86177 | -110.61278 | 39095 ft | 550 kts | 85° |
| 2026-04-23 20:58 | 34.86887 | -110.52052 | 39089 ft | 550 kts | 86° |
| 2026-04-23 20:58 | 34.87593 | -110.42815 | 39101 ft | 552 kts | 85° |
| 2026-04-23 20:59 | 34.88295 | -110.33499 | 39082 ft | 551 kts | 86° |
| 2026-04-23 20:59 | 34.88988 | -110.24240 | 39075 ft | 550 kts | 86° |
| 2026-04-23 21:00 | 34.89673 | -110.14946 | 39079 ft | 551 kts | 86° |
| 2026-04-23 21:00 | 34.90354 | -110.05653 | 39075 ft | 553 kts | 86° |
| 2026-04-23 21:01 | 34.91027 | -109.96351 | 39081 ft | 553 kts | 86° |
| 2026-04-23 21:01 | 34.91695 | -109.87013 | 39095 ft | 555 kts | 86° |
| 2026-04-23 21:02 | 34.92355 | -109.77685 | 39104 ft | 555 kts | 86° |
| 2026-04-23 21:02 | 34.93010 | -109.68338 | 39106 ft | 555 kts | 86° |
| 2026-04-23 21:03 | 34.93660 | -109.58958 | 39127 ft | 557 kts | 86° |
| 2026-04-23 21:03 | 34.94301 | -109.49599 | 39138 ft | 558 kts | 86° |
| 2026-04-23 21:04 | 34.94938 | -109.40188 | 39142 ft | 556 kts | 86° |
| 2026-04-23 21:04 | 34.95569 | -109.30776 | 39120 ft | 558 kts | 87° |
| 2026-04-23 21:05 | 34.96191 | -109.21358 | 39123 ft | 558 kts | 86° |
| 2026-04-23 21:05 | 34.96740 | -109.11951 | 39125 ft | 558 kts | 89° |
| 2026-04-23 21:06 | 34.97126 | -109.02546 | 39109 ft | 559 kts | 89° |
| 2026-04-23 21:06 | 34.97519 | -108.93082 | 39105 ft | 559 kts | 88° |
| 2026-04-23 21:07 | 34.97902 | -108.83661 | 39106 ft | 557 kts | 88° |
| 2026-04-23 21:07 | 34.98277 | -108.74269 | 39121 ft | 557 kts | 89° |
| 2026-04-23 21:08 | 34.98646 | -108.64873 | 39133 ft | 556 kts | 89° |
| 2026-04-23 21:08 | 34.99008 | -108.55471 | 39138 ft | 557 kts | 89° |
| 2026-04-23 21:09 | 34.99362 | -108.46069 | 39136 ft | 557 kts | 88° |
| 2026-04-23 21:09 | 34.99709 | -108.36633 | 39146 ft | 558 kts | 88° |
| 2026-04-23 21:10 | 35.00053 | -108.27149 | 39131 ft | 556 kts | 89° |
| 2026-04-23 21:10 | 35.00384 | -108.17765 | 39132 ft | 556 kts | 89° |
| 2026-04-23 21:11 | 35.00706 | -108.08424 | 39133 ft | 557 kts | 89° |
| 2026-04-23 21:11 | 35.01027 | -107.98953 | 39127 ft | 558 kts | 89° |
| 2026-04-23 21:12 | 35.01337 | -107.89587 | 39122 ft | 557 kts | 89° |
| 2026-04-23 21:12 | 35.01643 | -107.80123 | 39116 ft | 557 kts | 89° |
| 2026-04-23 21:13 | 35.01937 | -107.70753 | 39123 ft | 557 kts | 89° |
| 2026-04-23 21:13 | 35.02226 | -107.61320 | 39118 ft | 558 kts | 89° |
| 2026-04-23 21:14 | 35.02509 | -107.51874 | 39104 ft | 557 kts | 89° |
| 2026-04-23 21:14 | 35.02782 | -107.42484 | 39112 ft | 558 kts | 89° |
| 2026-04-23 21:15 | 35.03051 | -107.33045 | 39080 ft | 558 kts | 90° |
| 2026-04-23 21:15 | 35.03304 | -107.23878 | 39065 ft | 557 kts | 90° |
| 2026-04-23 21:16 | 35.03558 | -107.14438 | 39059 ft | 558 kts | 90° |
| 2026-04-23 21:16 | 35.03803 | -107.04978 | 39034 ft | 558 kts | 89° |
| 2026-04-23 21:17 | 35.04040 | -106.95573 | 39015 ft | 559 kts | 89° |
| 2026-04-23 21:17 | 35.04273 | -106.86115 | 39004 ft | 559 kts | 89° |
| 2026-04-23 21:18 | 35.04644 | -106.76667 | 38995 ft | 561 kts | 86° |
| 2026-04-23 21:18 | 35.05182 | -106.67195 | 39001 ft | 558 kts | 87° |
| 2026-04-23 21:19 | 35.05703 | -106.57716 | 39006 ft | 560 kts | 86° |
| 2026-04-23 21:19 | 35.06213 | -106.48275 | 39021 ft | 560 kts | 86° |
| 2026-04-23 21:20 | 35.06717 | -106.38789 | 39044 ft | 561 kts | 86° |
| 2026-04-23 21:20 | 35.07205 | -106.29483 | 39031 ft | 560 kts | 86° |
| 2026-04-23 21:21 | 35.07696 | -106.19988 | 39049 ft | 560 kts | 87° |
| 2026-04-23 21:21 | 35.08176 | -106.10504 | 39049 ft | 560 kts | 87° |
| 2026-04-23 21:22 | 35.08649 | -106.01067 | 39055 ft | 562 kts | 86° |
| 2026-04-23 21:22 | 35.09119 | -105.91544 | 39092 ft | 562 kts | 87° |
| 2026-04-23 21:23 | 35.09578 | -105.82072 | 39063 ft | 561 kts | 87° |
| 2026-04-23 21:23 | 35.10030 | -105.72566 | 39072 ft | 559 kts | 86° |
| 2026-04-23 21:24 | 35.10466 | -105.63314 | 39082 ft | 558 kts | 87° |
| 2026-04-23 21:24 | 35.10900 | -105.53873 | 39070 ft | 558 kts | 86° |
| 2026-04-23 21:25 | 35.11328 | -105.44436 | 39077 ft | 557 kts | 87° |
| 2026-04-23 21:25 | 35.11748 | -105.35008 | 39049 ft | 555 kts | 87° |
| 2026-04-23 21:26 | 35.12161 | -105.25600 | 39029 ft | 556 kts | 87° |
| 2026-04-23 21:26 | 35.12568 | -105.16166 | 38979 ft | 554 kts | 87° |
| 2026-04-23 21:27 | 35.12961 | -105.06825 | 38958 ft | 555 kts | 87° |
| 2026-04-23 21:27 | 35.13350 | -104.97450 | 38970 ft | 554 kts | 88° |
| 2026-04-23 21:28 | 35.13731 | -104.88062 | 38970 ft | 553 kts | 86° |
| 2026-04-23 21:28 | 35.14105 | -104.78701 | 38964 ft | 555 kts | 87° |
| 2026-04-23 21:29 | 35.14474 | -104.69302 | 38959 ft | 556 kts | 88° |
| 2026-04-23 21:29 | 35.14836 | -104.59850 | 38964 ft | 555 kts | 87° |
| 2026-04-23 21:30 | 35.15191 | -104.50446 | 38971 ft | 556 kts | 87° |
| 2026-04-23 21:30 | 35.15538 | -104.41006 | 38969 ft | 559 kts | 86° |
| 2026-04-23 21:31 | 35.15878 | -104.31529 | 38937 ft | 559 kts | 88° |
| 2026-04-23 21:31 | 35.16212 | -104.22030 | 38938 ft | 559 kts | 87° |
| 2026-04-23 21:32 | 35.16540 | -104.12579 | 38943 ft | 560 kts | 87° |
| 2026-04-23 21:32 | 35.16857 | -104.03135 | 38932 ft | 560 kts | 88° |
| 2026-04-23 21:33 | 35.17171 | -103.93619 | 38933 ft | 562 kts | 88° |
| 2026-04-23 21:33 | 35.17475 | -103.84124 | 38918 ft | 561 kts | 88° |
| 2026-04-23 21:34 | 35.17776 | -103.74587 | 38880 ft | 562 kts | 88° |
| 2026-04-23 21:34 | 35.18066 | -103.65072 | 38859 ft | 561 kts | 88° |
| 2026-04-23 21:35 | 35.18370 | -103.55594 | 38868 ft | 560 kts | 87° |
| 2026-04-23 21:35 | 35.18704 | -103.46146 | 38882 ft | 560 kts | 87° |
| 2026-04-23 21:36 | 35.19185 | -103.31931 | 38873 ft | 560 kts | 87° |
| 2026-04-23 21:37 | 35.19501 | -103.22366 | 38876 ft | 561 kts | 88° |
| 2026-04-23 21:37 | 35.19807 | -103.12880 | 38873 ft | 561 kts | 88° |
| 2026-04-23 21:38 | 35.20104 | -103.03365 | 38875 ft | 560 kts | 87° |
| 2026-04-23 21:38 | 35.20394 | -102.93845 | 38873 ft | 561 kts | 87° |
| 2026-04-23 21:39 | 35.20679 | -102.84367 | 38883 ft | 560 kts | 87° |
| 2026-04-23 21:39 | 35.20956 | -102.74834 | 38881 ft | 562 kts | 87° |
| 2026-04-23 21:40 | 35.21224 | -102.65331 | 38884 ft | 559 kts | 87° |
| 2026-04-23 21:40 | 35.21485 | -102.55828 | 38882 ft | 560 kts | 87° |
| 2026-04-23 21:41 | 35.21737 | -102.46394 | 38884 ft | 560 kts | 87° |
| 2026-04-23 21:41 | 35.21982 | -102.36867 | 38872 ft | 560 kts | 87° |
| 2026-04-23 21:42 | 35.22222 | -102.27370 | 38855 ft | 558 kts | 88° |
| 2026-04-23 21:42 | 35.22453 | -102.17918 | 38853 ft | 558 kts | 88° |
| 2026-04-23 21:43 | 35.22676 | -102.08364 | 38838 ft | 559 kts | 88° |
| 2026-04-23 21:43 | 35.22890 | -101.98914 | 38833 ft | 559 kts | 87° |
| 2026-04-23 21:44 | 35.23103 | -101.89451 | 38811 ft | 558 kts | 88° |
| 2026-04-23 21:44 | 35.23301 | -101.79997 | 38807 ft | 557 kts | 87° |
| 2026-04-23 21:45 | 35.23494 | -101.70522 | 38812 ft | 558 kts | 87° |
| 2026-04-23 21:45 | 35.23916 | -101.61075 | 38808 ft | 556 kts | 85° |
| 2026-04-23 21:46 | 35.24354 | -101.51620 | 38802 ft | 555 kts | 85° |
| 2026-04-23 21:46 | 35.24783 | -101.42193 | 38806 ft | 557 kts | 85° |
| 2026-04-23 21:47 | 35.25203 | -101.32742 | 38795 ft | 557 kts | 86° |
| 2026-04-23 21:47 | 35.25605 | -101.23509 | 38790 ft | 554 kts | 85° |
| 2026-04-23 21:48 | 35.26009 | -101.14113 | 38791 ft | 553 kts | 86° |
| 2026-04-23 21:48 | 35.26402 | -101.04734 | 38796 ft | 553 kts | 85° |
| 2026-04-23 21:49 | 35.26792 | -100.95351 | 38790 ft | 553 kts | 85° |
| 2026-04-23 21:49 | 35.27169 | -100.86011 | 38772 ft | 550 kts | 85° |
| 2026-04-23 21:50 | 35.27542 | -100.76682 | 38758 ft | 552 kts | 85° |
| 2026-04-23 21:50 | 35.27905 | -100.67345 | 38757 ft | 550 kts | 86° |
| 2026-04-23 21:51 | 35.28263 | -100.58021 | 38757 ft | 549 kts | 85° |
| 2026-04-23 21:51 | 35.28616 | -100.48650 | 38760 ft | 550 kts | 85° |
| 2026-04-23 21:52 | 35.28956 | -100.39352 | 38750 ft | 550 kts | 85° |
| 2026-04-23 21:52 | 35.29292 | -100.29997 | 38712 ft | 547 kts | 85° |
| 2026-04-23 21:53 | 35.29620 | -100.20719 | 38707 ft | 548 kts | 86° |
| 2026-04-23 21:53 | 35.29939 | -100.11395 | 38703 ft | 548 kts | 86° |
| 2026-04-23 21:54 | 35.30250 | -100.02121 | 38693 ft | 547 kts | 85° |
| 2026-04-23 21:54 | 35.30558 | -99.92786 | 38698 ft | 548 kts | 86° |
| 2026-04-23 21:55 | 35.30854 | -99.83547 | 38688 ft | 547 kts | 86° |
| 2026-04-23 21:55 | 35.31146 | -99.74260 | 38692 ft | 545 kts | 85° |
| 2026-04-23 21:56 | 35.31428 | -99.65025 | 38693 ft | 546 kts | 86° |
| 2026-04-23 21:56 | 35.31704 | -99.55785 | 38680 ft | 542 kts | 86° |
| 2026-04-23 21:57 | 35.31972 | -99.46557 | 38681 ft | 543 kts | 86° |
| 2026-04-23 21:57 | 35.32232 | -99.37337 | 38678 ft | 542 kts | 85° |
| 2026-04-23 21:58 | 35.32486 | -99.28188 | 38665 ft | 542 kts | 86° |
| 2026-04-23 21:58 | 35.32730 | -99.19021 | 38674 ft | 540 kts | 86° |
| 2026-04-23 21:59 | 35.32969 | -99.09843 | 38667 ft | 540 kts | 86° |
| 2026-04-23 21:59 | 35.33201 | -99.00659 | 38673 ft | 538 kts | 86° |
| 2026-04-23 22:00 | 35.33534 | -98.87000 | 38668 ft | 538 kts | 86° |
| 2026-04-23 22:00 | 35.33748 | -98.77831 | 38670 ft | 536 kts | 86° |
| 2026-04-23 22:01 | 35.33952 | -98.68756 | 38674 ft | 534 kts | 87° |
| 2026-04-23 22:01 | 35.34147 | -98.59711 | 38676 ft | 531 kts | 86° |
| 2026-04-23 22:02 | 35.34337 | -98.50683 | 38664 ft | 529 kts | 87° |
| 2026-04-23 22:02 | 35.34522 | -98.41627 | 38669 ft | 530 kts | 86° |
| 2026-04-23 22:03 | 35.34694 | -98.32771 | 38654 ft | 525 kts | 87° |
| 2026-04-23 22:03 | 35.34866 | -98.23721 | 38650 ft | 526 kts | 87° |
| 2026-04-23 22:04 | 35.35026 | -98.14798 | 38664 ft | 524 kts | 87° |
| 2026-04-23 22:04 | 35.35181 | -98.05875 | 38683 ft | 522 kts | 88° |
| 2026-04-23 22:05 | 35.35328 | -97.97039 | 38676 ft | 520 kts | 88° |
| 2026-04-23 22:05 | 35.35468 | -97.88150 | 38695 ft | 520 kts | 87° |
| 2026-04-23 22:06 | 35.35603 | -97.79273 | 38694 ft | 520 kts | 88° |
| 2026-04-23 22:06 | 35.35724 | -97.70872 | 38698 ft | 516 kts | 88° |
| 2026-04-23 22:07 | 35.35845 | -97.62086 | 38696 ft | 518 kts | 88° |
| 2026-04-23 22:07 | 35.36315 | -97.53336 | 38706 ft | 516 kts | 84° |
| 2026-04-23 22:08 | 35.36852 | -97.44609 | 38721 ft | 514 kts | 84° |
| 2026-04-23 22:08 | 35.37377 | -97.35892 | 38714 ft | 513 kts | 84° |
| 2026-04-23 22:09 | 35.37880 | -97.27389 | 38710 ft | 512 kts | 84° |
| 2026-04-23 22:09 | 35.38386 | -97.18741 | 38714 ft | 511 kts | 84° |
| 2026-04-23 22:10 | 35.38887 | -97.10061 | 38707 ft | 510 kts | 84° |
| 2026-04-23 22:10 | 35.39382 | -97.01367 | 38714 ft | 510 kts | 84° |
| 2026-04-23 22:11 | 35.39869 | -96.92731 | 38713 ft | 509 kts | 84° |
| 2026-04-23 22:11 | 35.40346 | -96.84125 | 38724 ft | 510 kts | 84° |
| 2026-04-23 22:12 | 35.40821 | -96.75483 | 38723 ft | 507 kts | 84° |
| 2026-04-23 22:12 | 35.41288 | -96.66831 | 38742 ft | 507 kts | 84° |
| 2026-04-23 22:13 | 35.41744 | -96.58292 | 38739 ft | 504 kts | 84° |
| 2026-04-23 22:13 | 35.42199 | -96.49682 | 38737 ft | 504 kts | 84° |
| 2026-04-23 22:14 | 35.42640 | -96.41189 | 38739 ft | 503 kts | 84° |
| 2026-04-23 22:14 | 35.43074 | -96.32723 | 38734 ft | 502 kts | 84° |
| 2026-04-23 22:15 | 35.43494 | -96.24441 | 38738 ft | 502 kts | 85° |
| 2026-04-23 22:15 | 35.43917 | -96.15956 | 38741 ft | 500 kts | 85° |
| 2026-04-23 22:16 | 35.44333 | -96.07490 | 38749 ft | 497 kts | 85° |
| 2026-04-23 22:16 | 35.44743 | -95.99018 | 38757 ft | 498 kts | 85° |
| 2026-04-23 22:17 | 35.45148 | -95.90569 | 38742 ft | 497 kts | 85° |
| 2026-04-23 22:17 | 35.45546 | -95.82106 | 38762 ft | 498 kts | 85° |
| 2026-04-23 22:18 | 35.45937 | -95.73669 | 38767 ft | 496 kts | 85° |
| 2026-04-23 22:18 | 35.46323 | -95.65236 | 38757 ft | 496 kts | 85° |
| 2026-04-23 22:19 | 35.46702 | -95.56798 | 38770 ft | 496 kts | 85° |
| 2026-04-23 22:19 | 35.47055 | -95.48817 | 38771 ft | 494 kts | 85° |
| 2026-04-23 22:20 | 35.47422 | -95.40410 | 38778 ft | 494 kts | 85° |
| 2026-04-23 22:20 | 35.47777 | -95.32136 | 38773 ft | 494 kts | 86° |
| 2026-04-23 22:21 | 35.48132 | -95.23738 | 38771 ft | 493 kts | 86° |
| 2026-04-23 22:21 | 35.48481 | -95.15328 | 38781 ft | 492 kts | 86° |
| 2026-04-23 22:22 | 35.48822 | -95.06993 | 38789 ft | 490 kts | 87° |
| 2026-04-23 22:22 | 35.49156 | -94.98662 | 38803 ft | 488 kts | 87° |
| 2026-04-23 22:23 | 35.49483 | -94.90368 | 38810 ft | 488 kts | 87° |
| 2026-04-23 22:23 | 35.49805 | -94.82069 | 38814 ft | 489 kts | 87° |
| 2026-04-23 22:24 | 35.50123 | -94.73720 | 38814 ft | 488 kts | 87° |
| 2026-04-23 22:24 | 35.50431 | -94.65473 | 38812 ft | 488 kts | 87° |
| 2026-04-23 22:25 | 35.50738 | -94.57091 | 38821 ft | 488 kts | 87° |
| 2026-04-23 22:25 | 35.51037 | -94.48785 | 38830 ft | 488 kts | 87° |
| 2026-04-23 22:26 | 35.51330 | -94.40508 | 38836 ft | 488 kts | 86° |
| 2026-04-23 22:26 | 35.51614 | -94.32302 | 38829 ft | 488 kts | 87° |
| 2026-04-23 22:27 | 35.51897 | -94.23964 | 38836 ft | 489 kts | 87° |
| 2026-04-23 22:27 | 35.52173 | -94.15686 | 38828 ft | 488 kts | 87° |
| 2026-04-23 22:28 | 35.52445 | -94.07346 | 38823 ft | 488 kts | 87° |
| 2026-04-23 22:28 | 35.52710 | -93.99024 | 38825 ft | 488 kts | 87° |
| 2026-04-23 22:29 | 35.52968 | -93.90745 | 38825 ft | 488 kts | 87° |
| 2026-04-23 22:29 | 35.53293 | -93.82450 | 38831 ft | 487 kts | 85° |
| 2026-04-23 22:30 | 35.53747 | -93.74184 | 38845 ft | 486 kts | 85° |
| 2026-04-23 22:30 | 35.54190 | -93.65875 | 38838 ft | 486 kts | 85° |
| 2026-04-23 22:31 | 35.54626 | -93.57596 | 38845 ft | 485 kts | 85° |
| 2026-04-23 22:31 | 35.55055 | -93.49316 | 38849 ft | 486 kts | 86° |
| 2026-04-23 22:32 | 35.55479 | -93.41041 | 38853 ft | 485 kts | 86° |
| 2026-04-23 22:32 | 35.55889 | -93.32898 | 38858 ft | 485 kts | 86° |
| 2026-04-23 22:33 | 35.56301 | -93.24632 | 38864 ft | 485 kts | 86° |
| 2026-04-23 22:33 | 35.56708 | -93.16331 | 38863 ft | 485 kts | 86° |